createdAt,value
2022-12-12T05:30:58.524Z,81.90
2022-12-12T05:31:58.483Z,88.90
2022-12-12T05:32:58.460Z,88.70
2022-12-12T05:33:58.462Z,84.40
2022-12-12T05:34:58.444Z,84.50
2022-12-12T05:35:58.442Z,85.00
2022-12-12T05:36:58.412Z,82.90
2022-12-12T05:37:58.424Z,87.00
2022-12-12T05:38:58.410Z,88.90
2022-12-12T05:39:58.388Z,91.00
2022-12-12T05:40:58.372Z,86.70
2022-12-12T05:41:58.390Z,90.30
2022-12-12T05:42:58.342Z,87.90
2022-12-12T05:44:47.381Z,86.10
2022-12-12T05:45:47.431Z,98.60
2022-12-12T05:46:47.343Z,80.60
2022-12-12T05:47:47.339Z,80.20
2022-12-12T05:48:47.321Z,80.40
2022-12-12T05:49:47.380Z,89.00
2022-12-12T05:50:47.300Z,87.10
2022-12-12T05:51:47.289Z,89.00
2022-12-12T05:52:47.268Z,82.00
2022-12-12T05:53:47.265Z,91.40
2022-12-12T05:54:47.259Z,92.80
2022-12-12T05:55:47.230Z,92.80
2022-12-12T05:56:47.239Z,79.10
2022-12-12T05:57:47.209Z,93.50
2022-12-12T05:58:47.192Z,81.10
2022-12-12T05:59:47.283Z,89.70
2022-12-12T06:00:47.170Z,84.40
2022-12-12T06:01:47.168Z,87.00
2022-12-12T06:02:47.230Z,85.10
2022-12-12T06:03:47.166Z,85.60
2022-12-12T06:04:47.127Z,86.00
2022-12-12T06:05:47.109Z,82.40
2022-12-12T06:06:47.096Z,86.00
2022-12-12T06:07:47.164Z,82.40
2022-12-12T06:08:47.068Z,83.10
2022-12-12T06:09:47.075Z,82.30
2022-12-12T06:10:47.047Z,81.90
2022-12-12T06:11:47.035Z,85.50
2022-12-12T06:12:47.017Z,83.20
2022-12-12T06:13:47.015Z,87.80
2022-12-12T06:14:47.013Z,80.00
2022-12-12T06:15:47.057Z,82.10
2022-12-12T06:16:46.984Z,86.80
2022-12-12T06:17:46.957Z,83.10
2022-12-12T06:18:46.946Z,84.30
2022-12-12T06:19:46.969Z,76.20
2022-12-12T06:20:46.925Z,82.10
2022-12-12T06:21:46.942Z,88.50
2022-12-12T06:22:50.550Z,85.30
2022-12-12T06:23:47.882Z,84.20
2022-12-12T06:24:46.924Z,86.00
2022-12-12T06:25:46.878Z,84.90
2022-12-12T06:26:46.845Z,84.00
2022-12-12T06:27:46.859Z,85.80
2022-12-12T06:28:46.823Z,83.20
2022-12-12T06:29:46.812Z,92.50
2022-12-12T06:30:46.848Z,84.90
2022-12-12T06:31:46.801Z,79.90
2022-12-12T06:32:46.761Z,79.50
2022-12-12T06:33:46.796Z,80.50
2022-12-12T06:34:46.743Z,84.10
2022-12-12T06:35:46.741Z,80.50
2022-12-12T06:36:46.721Z,81.70
2022-12-12T06:37:46.701Z,82.10
2022-12-12T06:38:46.702Z,83.50
2022-12-12T06:39:46.701Z,78.30
2022-12-12T06:40:46.680Z,77.70
2022-12-12T06:41:46.650Z,83.00
2022-12-12T06:42:48.850Z,83.90
2022-12-12T06:43:46.628Z,85.40
2022-12-12T06:44:46.617Z,84.10
2022-12-12T06:45:46.618Z,91.10
2022-12-12T06:46:46.657Z,83.20
2022-12-12T06:47:46.595Z,82.90
2022-12-12T06:48:46.577Z,85.70
2022-12-12T06:49:46.584Z,85.70
2022-12-12T06:50:46.567Z,85.40
2022-12-12T06:51:46.578Z,87.20
2022-12-12T06:52:46.547Z,106.00
2022-12-12T06:53:46.508Z,100.70
2022-12-12T06:54:46.516Z,101.40
2022-12-12T06:55:46.494Z,106.80
2022-12-12T06:56:48.705Z,99.10
2022-12-12T06:57:46.466Z,93.80
2022-12-12T06:58:46.444Z,96.00
2022-12-12T06:59:46.446Z,97.70
2022-12-12T07:00:46.494Z,94.90
2022-12-12T07:01:46.448Z,95.30
2022-12-12T07:02:46.462Z,91.70
2022-12-12T07:03:46.424Z,94.50
2022-12-12T07:04:46.374Z,89.00
2022-12-12T07:05:46.444Z,88.60
2022-12-12T07:06:46.394Z,86.90
2022-12-12T07:07:46.397Z,89.80
2022-12-12T07:08:46.323Z,93.30
2022-12-12T07:09:46.302Z,95.80
2022-12-12T07:10:46.309Z,93.50
2022-12-12T07:11:46.273Z,90.00
2022-12-12T07:12:47.802Z,92.00
2022-12-12T07:13:46.248Z,90.40
2022-12-12T07:14:46.278Z,91.40
2022-12-12T07:15:46.276Z,91.00
2022-12-12T07:16:46.220Z,87.60
2022-12-12T07:17:46.201Z,97.30
2022-12-12T07:18:46.218Z,96.00
2022-12-12T07:19:46.177Z,88.50
2022-12-12T07:20:46.182Z,105.20
2022-12-12T07:21:46.150Z,89.80
2022-12-12T07:22:46.138Z,90.60
2022-12-12T07:23:46.172Z,107.00
2022-12-12T07:24:46.197Z,100.20
2022-12-12T07:25:46.118Z,96.10
2022-12-12T07:26:46.090Z,97.10
2022-12-12T07:27:46.076Z,97.20
2022-12-12T07:28:46.069Z,92.60
2022-12-12T07:29:46.077Z,100.00
2022-12-12T07:30:46.145Z,93.90
2022-12-12T07:31:46.040Z,99.40
2022-12-12T07:32:46.068Z,93.50
2022-12-12T07:33:45.996Z,95.60
2022-12-12T07:34:45.986Z,109.50
2022-12-12T07:35:45.989Z,95.50
2022-12-12T07:36:45.960Z,102.00
2022-12-12T07:37:45.953Z,96.20
2022-12-12T07:38:45.946Z,95.90
2022-12-12T07:39:45.922Z,101.70
2022-12-12T07:40:45.926Z,98.30
2022-12-12T07:41:45.899Z,102.30
2022-12-12T07:42:45.902Z,101.20
2022-12-12T07:43:45.927Z,92.50
2022-12-12T07:44:45.877Z,84.20
2022-12-12T07:45:45.890Z,92.00
2022-12-12T07:46:45.877Z,90.30
2022-12-12T07:47:45.814Z,92.30
2022-12-12T07:48:45.815Z,116.30
2022-12-12T07:49:45.843Z,108.80
2022-12-12T07:50:45.792Z,95.80
2022-12-12T07:51:49.148Z,95.90
2022-12-12T07:52:45.772Z,95.00
2022-12-12T07:53:45.746Z,91.80
2022-12-12T07:54:45.742Z,96.90
2022-12-12T07:55:45.712Z,88.90
2022-12-12T07:56:45.731Z,93.70
2022-12-12T07:57:45.690Z,96.50
2022-12-12T07:58:45.683Z,94.00
2022-12-12T07:59:45.681Z,95.30
2022-12-12T08:00:45.660Z,95.10
2022-12-12T08:01:45.710Z,92.50
2022-12-12T08:02:45.641Z,97.10
2022-12-12T08:03:45.610Z,92.30
2022-12-12T08:04:45.628Z,88.10
2022-12-12T08:05:45.590Z,89.70
2022-12-12T08:06:45.593Z,94.40
2022-12-12T08:07:45.693Z,91.80
2022-12-12T08:08:45.570Z,88.10
2022-12-12T08:09:45.549Z,83.30
2022-12-12T08:10:45.533Z,204.20
2022-12-12T08:11:46.520Z,216.10
2022-12-12T08:12:45.507Z,285.10
2022-12-12T08:13:45.487Z,264.90
2022-12-12T08:14:45.480Z,182.60
2022-12-12T08:15:45.534Z,156.70
2022-12-12T08:16:45.471Z,110.30
2022-12-12T08:17:45.437Z,96.30
2022-12-12T08:18:45.426Z,106.10
2022-12-12T08:19:45.419Z,69.60
2022-12-12T08:20:45.413Z,82.50
2022-12-12T08:21:45.397Z,71.40
2022-12-12T08:22:45.403Z,81.30
2022-12-12T08:23:45.373Z,82.30
2022-12-12T08:24:45.355Z,97.10
2022-12-12T08:25:45.342Z,92.20
2022-12-12T08:26:45.352Z,65.90
2022-12-12T08:27:45.326Z,58.50
2022-12-12T08:28:45.330Z,76.80
2022-12-12T08:29:45.335Z,70.60
2022-12-12T08:30:45.337Z,57.70
2022-12-12T08:31:45.413Z,62.90
2022-12-12T08:32:45.277Z,64.50
2022-12-12T08:33:45.256Z,53.00
2022-12-12T08:34:45.235Z,53.60
2022-12-12T08:35:45.242Z,48.70
2022-12-12T08:36:45.221Z,52.30
2022-12-12T08:37:45.182Z,56.80
2022-12-12T08:38:45.183Z,57.00
2022-12-12T08:39:45.171Z,55.80
2022-12-12T08:40:45.159Z,53.30
2022-12-12T08:41:45.159Z,58.80
2022-12-12T08:42:45.120Z,60.00
2022-12-12T08:43:45.149Z,57.70
2022-12-12T08:44:45.105Z,56.90
2022-12-12T08:45:45.102Z,58.50
2022-12-12T08:46:45.144Z,59.10
2022-12-12T08:47:45.060Z,66.70
2022-12-12T08:48:45.061Z,64.30
2022-12-12T08:49:45.040Z,65.60
2022-12-12T08:50:45.027Z,72.00
2022-12-12T08:51:45.032Z,79.90
2022-12-12T08:52:45.002Z,136.40
2022-12-12T08:53:44.997Z,95.70
2022-12-12T08:54:44.978Z,92.20
2022-12-12T08:55:44.958Z,118.10
2022-12-12T08:56:44.962Z,119.60
2022-12-12T08:57:44.939Z,104.80
2022-12-12T08:58:44.930Z,80.50
2022-12-12T08:59:44.919Z,79.70
2022-12-12T09:00:44.895Z,85.20
2022-12-12T09:01:45.054Z,80.10
2022-12-12T09:02:45.041Z,79.20
2022-12-12T09:03:44.865Z,80.10
2022-12-12T09:04:44.835Z,79.40
2022-12-12T09:05:44.836Z,79.80
2022-12-12T09:06:44.827Z,79.90
2022-12-12T09:07:44.806Z,87.30
2022-12-12T09:08:44.796Z,90.10
2022-12-12T09:09:44.787Z,88.40
2022-12-12T09:10:44.767Z,79.10
2022-12-12T09:11:44.782Z,80.40
2022-12-12T09:12:44.743Z,85.50
2022-12-12T09:13:44.732Z,80.60
2022-12-12T09:14:44.726Z,82.20
2022-12-12T09:15:44.712Z,81.30
2022-12-12T09:16:44.752Z,75.40
2022-12-12T09:17:44.683Z,84.80
2022-12-12T09:18:48.948Z,82.20
2022-12-12T09:19:44.663Z,86.60
2022-12-12T09:20:44.645Z,79.20
2022-12-12T09:21:44.652Z,87.40
2022-12-12T09:22:44.613Z,82.00
2022-12-12T09:23:44.607Z,88.60
2022-12-12T09:24:44.592Z,76.80
2022-12-12T09:25:44.581Z,82.70
2022-12-12T09:26:44.571Z,84.30
2022-12-12T09:27:44.570Z,89.00
2022-12-12T09:28:44.544Z,82.00
2022-12-12T09:29:44.530Z,86.70
2022-12-12T09:30:44.563Z,78.50
2022-12-12T09:31:44.587Z,82.10
2022-12-12T09:32:44.507Z,79.30
2022-12-12T09:33:44.479Z,75.30
2022-12-12T09:34:44.459Z,78.00
2022-12-12T09:35:44.458Z,83.70
2022-12-12T09:36:44.438Z,85.10
2022-12-12T09:37:44.439Z,79.00
2022-12-12T09:38:44.428Z,78.70
2022-12-12T09:39:44.398Z,83.50
2022-12-12T09:40:44.398Z,72.80
2022-12-12T09:41:44.380Z,82.10
2022-12-12T09:42:44.378Z,78.30
2022-12-12T09:43:44.360Z,82.60
2022-12-12T09:44:44.337Z,75.60
2022-12-12T09:45:44.380Z,73.90
2022-12-12T09:46:44.310Z,71.70
2022-12-12T09:47:44.308Z,75.20
2022-12-12T09:48:44.289Z,76.60
2022-12-12T09:49:44.370Z,79.40
2022-12-12T09:50:44.268Z,76.10
2022-12-12T09:51:44.255Z,71.30
2022-12-12T09:52:44.245Z,73.10
2022-12-12T09:53:44.225Z,73.30
2022-12-12T09:54:44.216Z,74.50
2022-12-12T09:55:44.204Z,78.70
2022-12-12T09:56:44.186Z,75.30
2022-12-12T09:57:44.186Z,74.70
2022-12-12T09:58:49.112Z,70.10
2022-12-12T09:59:45.144Z,75.50
2022-12-12T10:00:44.208Z,68.50
2022-12-12T10:01:44.211Z,66.10
2022-12-12T10:02:44.125Z,71.00
2022-12-12T10:03:44.094Z,72.40
2022-12-12T10:04:49.426Z,67.20
2022-12-12T10:05:45.076Z,65.80
2022-12-12T10:06:44.061Z,72.80
2022-12-12T10:07:44.126Z,65.60
2022-12-12T10:08:44.031Z,67.90
2022-12-12T10:09:44.028Z,65.20
2022-12-12T10:10:44.002Z,66.80
2022-12-12T10:11:44.001Z,67.50
2022-12-12T10:12:43.991Z,63.00
2022-12-12T10:13:43.981Z,65.20
2022-12-12T10:14:43.950Z,66.70
2022-12-12T10:15:43.954Z,65.40
2022-12-12T10:16:43.978Z,71.60
2022-12-12T10:17:43.930Z,65.60
2022-12-12T10:18:43.911Z,66.20
2022-12-12T10:19:43.910Z,71.10
2022-12-12T10:20:43.880Z,63.80
2022-12-12T10:21:43.872Z,68.30
2022-12-12T10:22:43.889Z,67.50
2022-12-12T10:23:43.839Z,63.60
2022-12-12T10:24:43.827Z,65.10
2022-12-12T10:25:43.818Z,62.30
2022-12-12T10:26:43.808Z,63.10
2022-12-12T10:27:43.809Z,72.30
2022-12-12T10:28:43.777Z,65.60
2022-12-12T10:29:43.766Z,64.50
2022-12-12T10:30:43.757Z,65.50
2022-12-12T10:31:43.781Z,67.00
2022-12-12T10:32:43.726Z,61.20
2022-12-12T10:33:43.726Z,66.30
2022-12-12T10:34:43.712Z,68.10
2022-12-12T10:35:43.687Z,70.30
2022-12-12T10:36:43.683Z,71.30
2022-12-12T10:37:43.656Z,64.10
2022-12-12T10:38:43.666Z,60.10
2022-12-12T10:39:44.496Z,65.40
2022-12-12T10:40:43.625Z,64.30
2022-12-12T10:41:43.615Z,69.40
2022-12-12T10:42:43.604Z,64.60
2022-12-12T10:43:43.599Z,66.60
2022-12-12T10:44:47.174Z,64.20
2022-12-12T10:45:43.601Z,65.30
2022-12-12T10:46:43.601Z,63.00
2022-12-12T10:47:43.534Z,70.20
2022-12-12T10:48:43.544Z,69.40
2022-12-12T10:49:43.511Z,64.00
2022-12-12T10:50:43.505Z,59.10
2022-12-12T10:51:43.482Z,62.50
2022-12-12T10:52:43.472Z,58.40
2022-12-12T10:53:44.438Z,65.10
2022-12-12T10:54:43.453Z,63.80
2022-12-12T10:55:43.433Z,66.10
2022-12-12T10:56:43.446Z,60.90
2022-12-12T10:57:43.411Z,58.60
2022-12-12T10:58:43.422Z,65.20
2022-12-12T10:59:43.383Z,68.00
2022-12-12T11:00:43.442Z,71.50
2022-12-12T11:02:09.006Z,63.30
2022-12-12T11:02:44.434Z,67.00
2022-12-12T11:03:43.409Z,68.80
2022-12-12T11:04:43.343Z,65.60
2022-12-12T11:05:43.316Z,66.30
2022-12-12T11:06:43.305Z,70.20
2022-12-12T11:07:43.279Z,63.30
2022-12-12T11:08:43.302Z,63.00
2022-12-12T11:09:43.260Z,65.20
2022-12-12T11:10:43.238Z,66.10
2022-12-12T11:11:43.229Z,68.30
2022-12-12T11:12:43.218Z,67.70
2022-12-12T11:13:43.228Z,64.10
2022-12-12T11:14:43.197Z,68.40
2022-12-12T11:15:43.168Z,65.80
2022-12-12T11:16:43.194Z,68.10
2022-12-12T11:17:43.147Z,70.40
2022-12-12T11:18:43.147Z,66.50
2022-12-12T11:19:43.118Z,68.90
2022-12-12T11:20:43.122Z,72.00
2022-12-12T11:21:43.106Z,68.60
2022-12-12T11:22:43.086Z,71.60
2022-12-12T11:23:43.086Z,70.50
2022-12-12T11:24:43.083Z,71.10
2022-12-12T11:25:43.045Z,72.00
2022-12-12T11:26:43.035Z,71.50
2022-12-12T11:27:43.026Z,71.30
2022-12-12T11:28:43.027Z,66.10
2022-12-12T11:29:43.068Z,69.70
2022-12-12T11:30:42.997Z,72.30
2022-12-12T11:31:43.015Z,70.00
2022-12-12T11:32:42.964Z,68.30
2022-12-12T11:33:42.966Z,68.70
2022-12-12T11:34:42.965Z,65.70
2022-12-12T11:35:47.446Z,68.90
2022-12-12T11:36:43.913Z,66.60
2022-12-12T11:37:42.912Z,66.80
2022-12-12T11:38:42.912Z,66.20
2022-12-12T11:39:42.873Z,65.60
2022-12-12T11:40:42.863Z,64.90
2022-12-12T11:41:42.850Z,69.70
2022-12-12T11:42:42.831Z,63.10
2022-12-12T11:43:42.821Z,64.80
2022-12-12T11:44:42.812Z,67.30
2022-12-12T11:45:42.839Z,66.20
2022-12-12T11:46:49.832Z,68.10
2022-12-12T11:47:42.813Z,63.70
2022-12-12T11:48:42.751Z,72.90
2022-12-12T11:49:42.788Z,63.70
2022-12-12T11:50:42.732Z,76.60
2022-12-12T11:51:42.721Z,73.80
2022-12-12T11:52:42.703Z,74.90
2022-12-12T11:53:42.698Z,73.50
2022-12-12T11:54:42.693Z,67.60
2022-12-12T11:55:42.680Z,64.50
2022-12-12T11:56:42.698Z,68.90
2022-12-12T11:57:42.640Z,70.40
2022-12-12T11:58:42.630Z,72.50
2022-12-12T11:59:42.687Z,75.80
2022-12-12T12:00:42.598Z,70.60
2022-12-12T12:01:42.598Z,71.20
2022-12-12T12:02:42.577Z,69.10
2022-12-12T12:03:42.621Z,79.00
2022-12-12T12:04:42.800Z,72.20
2022-12-12T12:05:42.539Z,74.30
2022-12-12T12:06:42.525Z,72.40
2022-12-12T12:07:42.518Z,71.00
2022-12-12T12:08:42.497Z,68.10
2022-12-12T12:09:42.581Z,72.60
2022-12-12T12:10:42.475Z,74.90
2022-12-12T12:11:42.470Z,70.00
2022-12-12T12:12:42.447Z,65.60
2022-12-12T12:13:42.445Z,70.60
2022-12-12T12:14:42.435Z,71.70
2022-12-12T12:15:42.415Z,72.80
2022-12-12T12:16:42.474Z,73.30
2022-12-12T12:17:42.385Z,70.40
2022-12-12T12:18:42.375Z,68.20
2022-12-12T12:19:42.377Z,65.50
2022-12-12T12:20:42.345Z,66.80
2022-12-12T12:21:42.335Z,65.30
2022-12-12T12:22:42.323Z,66.30
2022-12-12T12:23:46.241Z,65.20
2022-12-12T12:24:43.311Z,68.50
2022-12-12T12:25:42.284Z,64.70
2022-12-12T12:26:42.265Z,63.50
2022-12-12T12:27:42.265Z,63.70
2022-12-12T12:28:42.242Z,67.80
2022-12-12T12:29:42.252Z,68.50
2022-12-12T12:30:42.288Z,69.30
2022-12-12T12:31:42.214Z,70.70
2022-12-12T12:32:42.191Z,64.80
2022-12-12T12:33:42.190Z,68.20
2022-12-12T12:34:42.179Z,65.50
2022-12-12T12:35:42.161Z,61.20
2022-12-12T12:36:42.142Z,61.00
2022-12-12T12:37:42.139Z,62.40
2022-12-12T12:38:42.122Z,66.70
2022-12-12T12:39:42.236Z,64.40
2022-12-12T12:40:42.090Z,63.90
2022-12-12T12:41:42.086Z,63.50
2022-12-12T12:42:47.784Z,66.60
2022-12-12T12:43:43.061Z,67.20
2022-12-12T12:44:42.137Z,66.00
2022-12-12T12:45:42.094Z,62.40
2022-12-12T12:46:42.023Z,66.90
2022-12-12T12:47:42.001Z,62.50
2022-12-12T12:48:41.987Z,65.00
2022-12-12T12:49:41.985Z,64.90
2022-12-12T12:50:41.979Z,61.20
2022-12-12T12:51:45.566Z,69.10
2022-12-12T12:52:42.940Z,63.60
2022-12-12T12:53:41.942Z,63.90
2022-12-12T12:54:41.916Z,62.70
2022-12-12T12:55:41.919Z,62.30
2022-12-12T12:56:43.897Z,68.80
2022-12-12T12:57:41.888Z,64.30
2022-12-12T12:58:41.866Z,63.20
2022-12-12T12:59:41.857Z,60.20
2022-12-12T13:00:41.848Z,66.00
2022-12-12T13:01:41.903Z,62.40
2022-12-12T13:02:41.843Z,65.50
2022-12-12T13:03:41.797Z,65.10
2022-12-12T13:04:41.789Z,64.70
2022-12-12T13:05:41.787Z,61.90
2022-12-12T13:06:41.754Z,67.50
2022-12-12T13:07:41.755Z,65.00
2022-12-12T13:08:41.735Z,64.30
2022-12-12T13:09:41.725Z,65.90
2022-12-12T13:10:41.729Z,65.90
2022-12-12T13:11:41.705Z,69.10
2022-12-12T13:12:41.682Z,70.00
2022-12-12T13:13:41.673Z,68.40
2022-12-12T13:14:41.664Z,57.90
2022-12-12T13:15:41.719Z,62.80
2022-12-12T13:16:41.639Z,58.50
2022-12-12T13:17:41.623Z,61.60
2022-12-12T13:18:45.526Z,60.90
2022-12-12T13:19:41.653Z,62.10
2022-12-12T13:20:41.593Z,64.40
2022-12-12T13:21:41.571Z,61.00
2022-12-12T13:22:41.571Z,59.50
2022-12-12T13:23:41.543Z,56.90
2022-12-12T13:24:41.633Z,57.00
2022-12-12T13:25:41.532Z,56.90
2022-12-12T13:26:41.511Z,59.40
2022-12-12T13:27:41.490Z,54.00
2022-12-12T13:28:41.489Z,54.30
2022-12-12T13:29:41.473Z,51.00
2022-12-12T13:30:41.515Z,52.30
2022-12-12T13:31:41.492Z,51.10
2022-12-12T13:32:41.450Z,59.10
2022-12-12T13:33:41.420Z,50.50
2022-12-12T13:34:41.411Z,51.10
2022-12-12T13:35:41.408Z,55.20
2022-12-12T13:36:41.389Z,58.70
2022-12-12T13:37:41.369Z,52.30
2022-12-12T13:38:41.363Z,53.50
2022-12-12T13:39:41.338Z,51.30
2022-12-12T13:40:41.351Z,51.50
2022-12-12T13:41:41.318Z,48.10
2022-12-12T13:42:41.307Z,50.20
2022-12-12T13:43:41.287Z,53.50
2022-12-12T13:44:41.277Z,52.00
2022-12-12T13:45:41.275Z,53.40
2022-12-12T13:46:41.273Z,46.40
2022-12-12T13:47:41.240Z,65.80
2022-12-12T13:48:46.307Z,58.90
2022-12-12T13:49:42.217Z,62.40
2022-12-12T13:50:41.216Z,53.70
2022-12-12T13:51:41.184Z,49.70
2022-12-12T13:52:41.175Z,52.40
2022-12-12T13:53:41.163Z,52.60
2022-12-12T13:54:41.154Z,51.80
2022-12-12T13:55:41.135Z,117.40
2022-12-12T13:56:41.136Z,59.40
2022-12-12T13:57:41.104Z,75.40
2022-12-12T13:58:41.094Z,53.10
2022-12-12T13:59:41.085Z,54.50
2022-12-12T14:00:41.074Z,49.70
2022-12-12T14:01:41.205Z,51.90
2022-12-12T14:02:41.107Z,53.60
2022-12-12T14:03:41.031Z,49.90
2022-12-12T14:04:41.022Z,57.00
2022-12-12T14:05:41.013Z,48.30
2022-12-12T14:06:41.012Z,49.50
2022-12-12T14:07:40.980Z,52.70
2022-12-12T14:08:41.019Z,107.10
2022-12-12T14:09:48.379Z,48.40
2022-12-12T14:10:41.950Z,49.30
2022-12-12T14:11:40.942Z,54.80
2022-12-12T14:12:40.921Z,48.10
2022-12-12T14:13:40.911Z,47.00
2022-12-12T14:14:40.892Z,51.60
2022-12-12T14:15:40.949Z,49.70
2022-12-12T14:16:40.882Z,49.80
2022-12-12T14:17:42.970Z,49.60
2022-12-12T14:18:40.853Z,53.40
2022-12-12T14:19:40.835Z,56.00
2022-12-12T14:20:40.819Z,55.10
2022-12-12T14:21:40.810Z,56.50
2022-12-12T14:22:40.790Z,54.50
2022-12-12T14:23:42.337Z,56.40
2022-12-12T14:24:46.270Z,54.00
2022-12-12T14:25:41.764Z,56.80
2022-12-12T14:26:40.758Z,55.90
2022-12-12T14:27:40.727Z,55.60
2022-12-12T14:28:40.718Z,60.40
2022-12-12T14:29:40.708Z,60.60
2022-12-12T14:30:40.768Z,56.30
2022-12-12T14:31:40.733Z,59.20
2022-12-12T14:32:40.674Z,62.10
2022-12-12T14:33:40.647Z,59.40
2022-12-12T14:34:40.636Z,53.30
2022-12-12T14:35:40.616Z,61.00
2022-12-12T14:36:40.626Z,62.30
2022-12-12T14:37:40.596Z,61.90
2022-12-12T14:38:40.596Z,61.50
2022-12-12T14:39:40.579Z,64.40
2022-12-12T14:40:40.565Z,61.90
2022-12-12T14:41:40.555Z,63.50
2022-12-12T14:43:19.174Z,56.60
2022-12-12T14:43:41.523Z,57.60
2022-12-12T14:44:40.514Z,58.50
2022-12-12T14:45:40.513Z,61.20
2022-12-12T14:46:40.548Z,59.70
2022-12-12T14:47:40.474Z,60.30
2022-12-12T14:48:40.454Z,59.50
2022-12-12T14:49:40.489Z,56.90
2022-12-12T14:50:40.432Z,74.70
2022-12-12T14:51:40.453Z,65.20
2022-12-12T14:52:40.403Z,63.40
2022-12-12T14:53:40.412Z,63.30
2022-12-12T14:54:40.382Z,65.00
2022-12-12T14:55:40.374Z,64.60
2022-12-12T14:56:40.351Z,71.70
2022-12-12T14:57:40.352Z,67.40
2022-12-12T14:58:40.331Z,62.80
2022-12-12T14:59:40.320Z,60.90
2022-12-12T15:00:40.309Z,68.30
2022-12-12T15:01:40.298Z,63.70
2022-12-12T15:02:40.396Z,65.40
2022-12-12T15:03:40.460Z,64.90
2022-12-12T15:04:40.253Z,62.00
2022-12-12T15:05:40.250Z,60.10
2022-12-12T15:06:40.228Z,66.50
2022-12-12T15:07:40.238Z,67.10
2022-12-12T15:08:40.199Z,65.50
2022-12-12T15:09:40.313Z,67.20
2022-12-12T15:10:40.181Z,70.30
2022-12-12T15:11:40.170Z,70.50
2022-12-12T15:12:40.167Z,66.60
2022-12-12T15:13:40.146Z,62.80
2022-12-12T15:14:40.130Z,63.40
2022-12-12T15:15:40.118Z,62.60
2022-12-12T15:16:45.946Z,69.70
2022-12-12T15:17:41.340Z,72.00
2022-12-12T15:18:40.076Z,64.20
2022-12-12T15:19:40.168Z,65.60
2022-12-12T15:20:40.054Z,64.30
2022-12-12T15:21:40.035Z,67.50
2022-12-12T15:22:40.036Z,66.20
2022-12-12T15:23:40.026Z,70.20
2022-12-12T15:24:39.995Z,70.70
2022-12-12T15:25:39.995Z,64.80
2022-12-12T15:26:39.975Z,66.50
2022-12-12T15:27:46.950Z,77.40
2022-12-12T15:28:40.954Z,77.00
2022-12-12T15:29:40.085Z,77.00
2022-12-12T15:30:39.924Z,78.80
2022-12-12T15:31:39.985Z,87.10
2022-12-12T15:32:39.996Z,97.60
2022-12-12T15:33:39.894Z,96.60
2022-12-12T15:34:39.939Z,98.50
2022-12-12T15:35:39.862Z,92.70
2022-12-12T15:36:39.856Z,88.40
2022-12-12T15:37:39.852Z,86.20
2022-12-12T15:38:39.830Z,82.10
2022-12-12T15:39:39.821Z,81.00
2022-12-12T15:40:39.804Z,73.80
2022-12-12T15:41:39.790Z,88.90
2022-12-12T15:42:39.790Z,80.00
2022-12-12T15:43:39.773Z,75.60
2022-12-12T15:44:39.753Z,79.00
2022-12-12T15:45:39.740Z,77.40
2022-12-12T15:46:39.749Z,73.60
2022-12-12T15:47:39.727Z,76.40
2022-12-12T15:48:39.700Z,85.80
2022-12-12T15:49:39.767Z,104.80
2022-12-12T15:50:39.678Z,104.40
2022-12-12T15:51:39.669Z,103.50
2022-12-12T15:52:39.658Z,97.70
2022-12-12T15:53:39.640Z,107.00
2022-12-12T15:54:39.628Z,108.80
2022-12-12T15:55:39.619Z,104.30
2022-12-12T15:56:39.599Z,99.60
2022-12-12T15:57:39.615Z,93.40
2022-12-12T15:58:39.575Z,85.70
2022-12-12T15:59:39.567Z,85.70
2022-12-12T16:00:39.612Z,86.10
2022-12-12T16:01:39.603Z,82.80
2022-12-12T16:02:39.538Z,76.30
2022-12-12T16:03:39.515Z,75.50
2022-12-12T16:04:39.495Z,74.20
2022-12-12T16:05:39.487Z,81.70
2022-12-12T16:06:39.476Z,80.90
2022-12-12T16:07:39.476Z,84.80
2022-12-12T16:08:39.541Z,71.70
2022-12-12T16:09:39.435Z,73.80
2022-12-12T16:10:39.426Z,65.40
2022-12-12T16:11:39.415Z,70.30
2022-12-12T16:12:39.425Z,77.80
2022-12-12T16:13:39.393Z,78.30
2022-12-12T16:14:41.198Z,99.40
2022-12-12T16:15:39.362Z,102.70
2022-12-12T16:16:39.382Z,104.20
2022-12-12T16:17:39.342Z,118.90
2022-12-12T16:18:39.330Z,134.20
2022-12-12T16:19:39.311Z,99.80
2022-12-12T16:20:39.300Z,71.50
2022-12-12T16:21:39.292Z,78.00
2022-12-12T16:22:39.273Z,78.80
2022-12-12T16:23:39.272Z,96.70
2022-12-12T16:24:39.251Z,87.10
2022-12-12T16:25:39.230Z,81.80
2022-12-12T16:26:39.221Z,100.10
2022-12-12T16:27:39.213Z,85.80
2022-12-12T16:28:39.209Z,103.90
2022-12-12T16:29:39.187Z,99.90
2022-12-12T16:30:39.178Z,93.20
2022-12-12T16:31:39.202Z,94.10
2022-12-12T16:32:39.147Z,87.40
2022-12-12T16:33:39.158Z,73.90
2022-12-12T16:34:39.119Z,69.40
2022-12-12T16:35:39.216Z,70.90
2022-12-12T16:36:42.125Z,69.40
2022-12-12T16:37:39.087Z,81.40
2022-12-12T16:38:39.088Z,79.10
2022-12-12T16:39:39.065Z,78.70
2022-12-12T16:40:39.052Z,72.50
2022-12-12T16:41:39.036Z,70.40
2022-12-12T16:42:39.039Z,70.90
2022-12-12T16:43:39.036Z,67.90
2022-12-12T16:44:38.996Z,68.40
2022-12-12T16:45:39.070Z,74.10
2022-12-12T16:46:38.975Z,69.10
2022-12-12T16:47:38.988Z,71.00
2022-12-12T16:48:38.961Z,83.70
2022-12-12T16:49:38.934Z,78.80
2022-12-12T16:50:38.925Z,74.60
2022-12-12T16:51:38.916Z,80.40
2022-12-12T16:52:38.897Z,87.10
2022-12-12T16:53:38.902Z,87.50
2022-12-12T16:54:38.872Z,77.20
2022-12-12T16:55:38.864Z,71.40
2022-12-12T16:56:38.850Z,73.00
2022-12-12T16:57:38.842Z,69.80
2022-12-12T16:58:38.833Z,69.90
2022-12-12T16:59:38.811Z,73.10
2022-12-12T17:00:38.835Z,75.10
2022-12-12T17:01:39.150Z,77.70
2022-12-12T17:02:38.774Z,78.30
2022-12-12T17:03:38.789Z,76.50
2022-12-12T17:04:38.758Z,76.60
2022-12-12T17:05:38.746Z,77.00
2022-12-12T17:06:38.720Z,74.50
2022-12-12T17:07:38.719Z,81.80
2022-12-12T17:08:38.696Z,79.10
2022-12-12T17:09:38.699Z,81.30
2022-12-12T17:10:38.673Z,84.60
2022-12-12T17:11:38.669Z,85.20
2022-12-12T17:12:38.638Z,81.30
2022-12-12T17:13:38.629Z,90.00
2022-12-12T17:14:38.627Z,85.00
2022-12-12T17:15:38.608Z,91.10
2022-12-12T17:16:38.683Z,85.80
2022-12-12T17:17:38.587Z,91.90
2022-12-12T17:18:38.598Z,98.80
2022-12-12T17:19:38.575Z,97.20
2022-12-12T17:20:38.551Z,92.30
2022-12-12T17:21:38.538Z,100.60
2022-12-12T17:22:38.526Z,92.80
2022-12-12T17:23:38.514Z,99.40
2022-12-12T17:24:38.506Z,95.20
2022-12-12T17:25:38.484Z,97.60
2022-12-12T17:26:38.473Z,95.80
2022-12-12T17:27:38.463Z,105.20
2022-12-12T17:28:38.444Z,97.60
2022-12-12T17:29:38.444Z,93.00
2022-12-12T17:30:38.414Z,88.00
2022-12-12T17:31:38.449Z,88.20
2022-12-12T17:32:38.392Z,87.50
2022-12-12T17:33:49.520Z,86.60
2022-12-12T17:34:39.383Z,88.90
2022-12-12T17:35:38.353Z,74.80
2022-12-12T17:36:38.351Z,78.40
2022-12-12T17:37:38.331Z,72.90
2022-12-12T17:38:41.061Z,85.50
2022-12-12T17:39:38.311Z,81.00
2022-12-12T17:40:38.299Z,84.00
2022-12-12T17:41:38.281Z,78.70
2022-12-12T17:42:38.271Z,82.80
2022-12-12T17:43:38.260Z,91.20
2022-12-12T17:44:38.260Z,91.80
2022-12-12T17:45:38.254Z,79.80
2022-12-12T17:46:38.219Z,80.20
2022-12-12T17:47:38.220Z,85.60
2022-12-12T17:48:38.189Z,73.00
2022-12-12T17:49:38.208Z,69.20
2022-12-12T17:50:41.808Z,75.20
2022-12-12T17:51:38.157Z,78.90
2022-12-12T17:52:38.138Z,79.60
2022-12-12T17:53:38.186Z,79.50
2022-12-12T17:54:38.149Z,79.00
2022-12-12T17:55:54.735Z,73.00
2022-12-12T17:56:39.087Z,80.90
2022-12-12T17:57:38.077Z,76.80
2022-12-12T17:58:38.066Z,73.20
2022-12-12T17:59:38.076Z,73.40
2022-12-12T18:00:38.264Z,86.00
2022-12-12T18:01:38.045Z,77.70
2022-12-12T18:02:45.090Z,81.30
2022-12-12T18:03:38.027Z,74.30
2022-12-12T18:04:38.084Z,69.40
2022-12-12T18:05:38.009Z,75.10
2022-12-12T18:06:37.973Z,71.60
2022-12-12T18:07:37.956Z,76.80
2022-12-12T18:08:37.939Z,73.30
2022-12-12T18:09:37.936Z,72.80
2022-12-12T18:10:37.932Z,71.00
2022-12-12T18:11:37.915Z,76.60
2022-12-12T18:12:37.885Z,75.80
2022-12-12T18:13:37.887Z,77.20
2022-12-12T18:14:37.865Z,76.20
2022-12-12T18:15:37.876Z,78.20
2022-12-12T18:16:37.943Z,72.10
2022-12-12T18:17:37.833Z,84.70
2022-12-12T18:18:37.814Z,83.50
2022-12-12T18:19:37.804Z,89.70
2022-12-12T18:20:37.822Z,85.40
2022-12-12T18:22:38.773Z,82.30
2022-12-12T18:23:37.760Z,88.50